sensor_id;sensor_type;location;lat;lon;timestamp;P1;durP1;ratioP1;P2;durP2;ratioP2
37805;SDS011;25082;50.870;0.022;2022-08-01T00:02:13;5.43;;;1.70;;
37805;SDS011;25082;50.870;0.022;2022-08-01T00:04:38;2.75;;;1.20;;
37805;SDS011;25082;50.870;0.022;2022-08-01T00:07:04;4.45;;;1.63;;
37805;SDS011;25082;50.870;0.022;2022-08-01T00:09:30;5.03;;;1.55;;
37805;SDS011;25082;50.870;0.022;2022-08-01T00:11:56;3.13;;;1.38;;
37805;SDS011;25082;50.870;0.022;2022-08-01T00:14:22;6.25;;;1.67;;
37805;SDS011;25082;50.870;0.022;2022-08-01T00:16:48;5.05;;;1.88;;
37805;SDS011;25082;50.870;0.022;2022-08-01T00:19:13;4.30;;;1.52;;
37805;SDS011;25082;50.870;0.022;2022-08-01T00:21:39;4.65;;;1.63;;
37805;SDS011;25082;50.870;0.022;2022-08-01T00:24:05;5.38;;;1.90;;
37805;SDS011;25082;50.870;0.022;2022-08-01T00:26:31;3.70;;;1.65;;
37805;SDS011;25082;50.870;0.022;2022-08-01T00:28:57;5.10;;;1.67;;
37805;SDS011;25082;50.870;0.022;2022-08-01T00:31:22;4.78;;;1.60;;
37805;SDS011;25082;50.870;0.022;2022-08-01T00:33:48;4.20;;;1.90;;
37805;SDS011;25082;50.870;0.022;2022-08-01T00:36:14;2.88;;;1.40;;
37805;SDS011;25082;50.870;0.022;2022-08-01T00:38:39;4.25;;;1.50;;
37805;SDS011;25082;50.870;0.022;2022-08-01T00:41:05;5.10;;;1.85;;
37805;SDS011;25082;50.870;0.022;2022-08-01T00:43:31;2.95;;;1.30;;
37805;SDS011;25082;50.870;0.022;2022-08-01T00:45:57;4.53;;;1.83;;
37805;SDS011;25082;50.870;0.022;2022-08-01T00:48:23;5.97;;;1.60;;
37805;SDS011;25082;50.870;0.022;2022-08-01T00:50:48;3.08;;;1.33;;
37805;SDS011;25082;50.870;0.022;2022-08-01T00:53:14;4.72;;;1.50;;
37805;SDS011;25082;50.870;0.022;2022-08-01T00:55:40;5.40;;;1.77;;
37805;SDS011;25082;50.870;0.022;2022-08-01T00:58:07;6.05;;;1.85;;
37805;SDS011;25082;50.870;0.022;2022-08-01T01:00:33;3.90;;;2.03;;
37805;SDS011;25082;50.870;0.022;2022-08-01T01:03:00;4.00;;;1.83;;
37805;SDS011;25082;50.870;0.022;2022-08-01T01:05:26;3.95;;;1.67;;
37805;SDS011;25082;50.870;0.022;2022-08-01T01:08:04;6.55;;;1.98;;
37805;SDS011;25082;50.870;0.022;2022-08-01T01:10:46;3.40;;;1.40;;
37805;SDS011;25082;50.870;0.022;2022-08-01T01:13:29;4.53;;;2.10;;
37805;SDS011;25082;50.870;0.022;2022-08-01T01:16:05;3.03;;;1.70;;
37805;SDS011;25082;50.870;0.022;2022-08-01T01:18:36;3.83;;;1.25;;
37805;SDS011;25082;50.870;0.022;2022-08-01T01:26:40;5.63;;;1.60;;
37805;SDS011;25082;50.870;0.022;2022-08-01T01:29:21;5.03;;;2.00;;
37805;SDS011;25082;50.870;0.022;2022-08-01T01:31:57;4.25;;;1.20;;
37805;SDS011;25082;50.870;0.022;2022-08-01T01:34:29;3.33;;;1.52;;
37805;SDS011;25082;50.870;0.022;2022-08-01T01:36:58;4.15;;;1.60;;
37805;SDS011;25082;50.870;0.022;2022-08-01T01:39:26;5.85;;;1.98;;
37805;SDS011;25082;50.870;0.022;2022-08-01T01:41:54;5.45;;;2.00;;
37805;SDS011;25082;50.870;0.022;2022-08-01T01:44:22;2.28;;;1.17;;
37805;SDS011;25082;50.870;0.022;2022-08-01T01:46:48;2.88;;;1.50;;
37805;SDS011;25082;50.870;0.022;2022-08-01T01:49:16;3.80;;;1.50;;
37805;SDS011;25082;50.870;0.022;2022-08-01T01:51:47;6.17;;;1.80;;
37805;SDS011;25082;50.870;0.022;2022-08-01T01:54:15;3.55;;;1.30;;
37805;SDS011;25082;50.870;0.022;2022-08-01T01:56:41;4.15;;;1.42;;
37805;SDS011;25082;50.870;0.022;2022-08-01T01:59:14;4.55;;;1.58;;
37805;SDS011;25082;50.870;0.022;2022-08-01T02:01:46;7.22;;;1.88;;
37805;SDS011;25082;50.870;0.022;2022-08-01T02:04:14;4.90;;;1.67;;
37805;SDS011;25082;50.870;0.022;2022-08-01T02:06:41;4.93;;;1.58;;
37805;SDS011;25082;50.870;0.022;2022-08-01T02:09:09;5.57;;;1.90;;
37805;SDS011;25082;50.870;0.022;2022-08-01T02:11:36;3.15;;;1.65;;
37805;SDS011;25082;50.870;0.022;2022-08-01T02:14:05;4.47;;;1.80;;
37805;SDS011;25082;50.870;0.022;2022-08-01T02:16:36;4.13;;;1.45;;
37805;SDS011;25082;50.870;0.022;2022-08-01T02:19:04;4.10;;;1.60;;
37805;SDS011;25082;50.870;0.022;2022-08-01T02:21:34;5.57;;;2.00;;
37805;SDS011;25082;50.870;0.022;2022-08-01T02:24:13;5.20;;;2.00;;
37805;SDS011;25082;50.870;0.022;2022-08-01T02:26:46;3.97;;;1.50;;
37805;SDS011;25082;50.870;0.022;2022-08-01T02:29:17;6.32;;;1.58;;
37805;SDS011;25082;50.870;0.022;2022-08-01T02:31:48;2.00;;;1.50;;
37805;SDS011;25082;50.870;0.022;2022-08-01T02:34:17;5.80;;;1.80;;
37805;SDS011;25082;50.870;0.022;2022-08-01T02:36:44;2.85;;;1.40;;
37805;SDS011;25082;50.870;0.022;2022-08-01T02:39:13;3.90;;;1.48;;
37805;SDS011;25082;50.870;0.022;2022-08-01T02:41:42;3.67;;;1.73;;
37805;SDS011;25082;50.870;0.022;2022-08-01T02:44:10;4.25;;;1.67;;
37805;SDS011;25082;50.870;0.022;2022-08-01T02:46:43;2.47;;;1.33;;
37805;SDS011;25082;50.870;0.022;2022-08-01T02:49:15;4.50;;;1.63;;
37805;SDS011;25082;50.870;0.022;2022-08-01T02:51:44;3.92;;;1.50;;
37805;SDS011;25082;50.870;0.022;2022-08-01T02:54:13;3.45;;;1.75;;
37805;SDS011;25082;50.870;0.022;2022-08-01T02:56:41;4.18;;;1.88;;
37805;SDS011;25082;50.870;0.022;2022-08-01T02:59:10;3.50;;;1.67;;
37805;SDS011;25082;50.870;0.022;2022-08-01T03:01:39;3.90;;;1.48;;
37805;SDS011;25082;50.870;0.022;2022-08-01T03:04:08;2.85;;;1.65;;
37805;SDS011;25082;50.870;0.022;2022-08-01T03:06:35;3.60;;;1.42;;
37805;SDS011;25082;50.870;0.022;2022-08-01T03:09:03;5.32;;;1.60;;
37805;SDS011;25082;50.870;0.022;2022-08-01T03:11:29;8.10;;;1.50;;
37805;SDS011;25082;50.870;0.022;2022-08-01T03:13:59;4.07;;;1.58;;
37805;SDS011;25082;50.870;0.022;2022-08-01T03:16:27;3.88;;;1.77;;
37805;SDS011;25082;50.870;0.022;2022-08-01T03:18:55;3.30;;;1.60;;
37805;SDS011;25082;50.870;0.022;2022-08-01T03:21:23;3.28;;;1.38;;
37805;SDS011;25082;50.870;0.022;2022-08-01T03:23:51;3.47;;;1.40;;
37805;SDS011;25082;50.870;0.022;2022-08-01T03:26:22;1.90;;;1.33;;
37805;SDS011;25082;50.870;0.022;2022-08-01T03:28:55;2.35;;;1.40;;
37805;SDS011;25082;50.870;0.022;2022-08-01T03:31:24;5.03;;;1.83;;
37805;SDS011;25082;50.870;0.022;2022-08-01T03:33:51;4.72;;;1.48;;
37805;SDS011;25082;50.870;0.022;2022-08-01T03:36:18;3.25;;;1.52;;
37805;SDS011;25082;50.870;0.022;2022-08-01T03:38:50;3.47;;;1.52;;
37805;SDS011;25082;50.870;0.022;2022-08-01T03:41:20;5.30;;;1.80;;
37805;SDS011;25082;50.870;0.022;2022-08-01T03:43:51;5.80;;;1.77;;
37805;SDS011;25082;50.870;0.022;2022-08-01T03:46:24;2.88;;;1.63;;
37805;SDS011;25082;50.870;0.022;2022-08-01T03:49:07;2.83;;;1.60;;
37805;SDS011;25082;50.870;0.022;2022-08-01T03:51:39;4.90;;;1.75;;
37805;SDS011;25082;50.870;0.022;2022-08-01T03:54:06;2.15;;;1.33;;
37805;SDS011;25082;50.870;0.022;2022-08-01T03:56:33;2.55;;;1.67;;
37805;SDS011;25082;50.870;0.022;2022-08-01T03:59:01;3.33;;;1.60;;
37805;SDS011;25082;50.870;0.022;2022-08-01T04:01:28;2.35;;;1.50;;
37805;SDS011;25082;50.870;0.022;2022-08-01T04:03:58;4.22;;;2.15;;
37805;SDS011;25082;50.870;0.022;2022-08-01T04:06:24;4.07;;;1.80;;
37805;SDS011;25082;50.870;0.022;2022-08-01T04:08:50;4.60;;;1.75;;
37805;SDS011;25082;50.870;0.022;2022-08-01T04:11:26;2.95;;;1.77;;
37805;SDS011;25082;50.870;0.022;2022-08-01T04:13:53;2.60;;;1.50;;
37805;SDS011;25082;50.870;0.022;2022-08-01T04:16:20;3.40;;;1.60;;
37805;SDS011;25082;50.870;0.022;2022-08-01T04:18:46;4.35;;;1.75;;
37805;SDS011;25082;50.870;0.022;2022-08-01T04:21:13;2.53;;;1.73;;
37805;SDS011;25082;50.870;0.022;2022-08-01T04:23:41;3.47;;;1.92;;
37805;SDS011;25082;50.870;0.022;2022-08-01T04:26:09;3.22;;;1.58;;
37805;SDS011;25082;50.870;0.022;2022-08-01T04:28:37;2.67;;;1.50;;
37805;SDS011;25082;50.870;0.022;2022-08-01T04:31:05;2.50;;;1.85;;
37805;SDS011;25082;50.870;0.022;2022-08-01T04:33:34;3.83;;;1.40;;
37805;SDS011;25082;50.870;0.022;2022-08-01T04:36:03;3.30;;;1.63;;
37805;SDS011;25082;50.870;0.022;2022-08-01T04:38:32;3.72;;;1.50;;
37805;SDS011;25082;50.870;0.022;2022-08-01T04:41:01;4.10;;;1.42;;
37805;SDS011;25082;50.870;0.022;2022-08-01T04:43:31;3.05;;;1.63;;
37805;SDS011;25082;50.870;0.022;2022-08-01T04:45:58;1.83;;;1.40;;
37805;SDS011;25082;50.870;0.022;2022-08-01T04:48:25;4.50;;;1.98;;
37805;SDS011;25082;50.870;0.022;2022-08-01T04:50:51;3.55;;;1.75;;
37805;SDS011;25082;50.870;0.022;2022-08-01T04:53:18;5.15;;;1.90;;
37805;SDS011;25082;50.870;0.022;2022-08-01T04:55:46;2.00;;;1.50;;
37805;SDS011;25082;50.870;0.022;2022-08-01T04:58:16;2.75;;;1.85;;
37805;SDS011;25082;50.870;0.022;2022-08-01T05:00:42;3.38;;;1.60;;
37805;SDS011;25082;50.870;0.022;2022-08-01T05:03:07;2.85;;;1.73;;
37805;SDS011;25082;50.870;0.022;2022-08-01T05:05:33;3.72;;;1.35;;
37805;SDS011;25082;50.870;0.022;2022-08-01T05:08:00;4.35;;;1.83;;
37805;SDS011;25082;50.870;0.022;2022-08-01T05:10:26;2.70;;;1.63;;
37805;SDS011;25082;50.870;0.022;2022-08-01T05:12:52;1.95;;;1.50;;
37805;SDS011;25082;50.870;0.022;2022-08-01T05:15:18;3.65;;;2.10;;
37805;SDS011;25082;50.870;0.022;2022-08-01T05:17:44;3.10;;;2.00;;
37805;SDS011;25082;50.870;0.022;2022-08-01T05:20:10;3.78;;;1.67;;
37805;SDS011;25082;50.870;0.022;2022-08-01T05:22:37;2.80;;;1.70;;
37805;SDS011;25082;50.870;0.022;2022-08-01T05:25:03;4.45;;;1.95;;
37805;SDS011;25082;50.870;0.022;2022-08-01T05:27:30;1.65;;;1.48;;
37805;SDS011;25082;50.870;0.022;2022-08-01T05:29:56;3.00;;;1.80;;
37805;SDS011;25082;50.870;0.022;2022-08-01T05:32:22;4.75;;;2.17;;
37805;SDS011;25082;50.870;0.022;2022-08-01T05:34:48;3.30;;;1.80;;
37805;SDS011;25082;50.870;0.022;2022-08-01T05:37:14;3.42;;;1.88;;
37805;SDS011;25082;50.870;0.022;2022-08-01T05:39:40;4.20;;;1.90;;
37805;SDS011;25082;50.870;0.022;2022-08-01T05:42:05;4.05;;;1.98;;
37805;SDS011;25082;50.870;0.022;2022-08-01T05:44:31;2.72;;;1.40;;
37805;SDS011;25082;50.870;0.022;2022-08-01T05:46:57;3.75;;;1.73;;
37805;SDS011;25082;50.870;0.022;2022-08-01T05:49:23;4.32;;;2.22;;
37805;SDS011;25082;50.870;0.022;2022-08-01T05:51:49;2.50;;;1.67;;
37805;SDS011;25082;50.870;0.022;2022-08-01T05:54:14;3.22;;;1.83;;
37805;SDS011;25082;50.870;0.022;2022-08-01T05:56:40;2.47;;;2.08;;
37805;SDS011;25082;50.870;0.022;2022-08-01T05:59:06;2.67;;;1.88;;
37805;SDS011;25082;50.870;0.022;2022-08-01T06:01:32;3.67;;;1.80;;
37805;SDS011;25082;50.870;0.022;2022-08-01T06:03:58;2.75;;;1.65;;
37805;SDS011;25082;50.870;0.022;2022-08-01T06:06:24;3.10;;;1.90;;
37805;SDS011;25082;50.870;0.022;2022-08-01T06:08:50;2.38;;;1.70;;
37805;SDS011;25082;50.870;0.022;2022-08-01T06:11:16;3.22;;;1.75;;
37805;SDS011;25082;50.870;0.022;2022-08-01T06:13:42;2.13;;;1.45;;
37805;SDS011;25082;50.870;0.022;2022-08-01T06:16:08;3.15;;;1.80;;
37805;SDS011;25082;50.870;0.022;2022-08-01T06:18:34;2.63;;;1.58;;
37805;SDS011;25082;50.870;0.022;2022-08-01T06:21:00;3.30;;;1.80;;
37805;SDS011;25082;50.870;0.022;2022-08-01T06:23:26;3.10;;;1.60;;
37805;SDS011;25082;50.870;0.022;2022-08-01T06:25:52;2.38;;;1.58;;
37805;SDS011;25082;50.870;0.022;2022-08-01T06:28:19;3.88;;;1.60;;
37805;SDS011;25082;50.870;0.022;2022-08-01T06:30:45;3.33;;;1.58;;
37805;SDS011;25082;50.870;0.022;2022-08-01T06:33:11;4.47;;;1.70;;
37805;SDS011;25082;50.870;0.022;2022-08-01T06:35:37;5.57;;;1.83;;
37805;SDS011;25082;50.870;0.022;2022-08-01T06:38:03;2.55;;;1.55;;
37805;SDS011;25082;50.870;0.022;2022-08-01T06:40:28;2.55;;;1.40;;
37805;SDS011;25082;50.870;0.022;2022-08-01T06:42:54;2.85;;;1.70;;
37805;SDS011;25082;50.870;0.022;2022-08-01T06:45:20;2.17;;;1.73;;
37805;SDS011;25082;50.870;0.022;2022-08-01T06:47:50;1.95;;;1.48;;
37805;SDS011;25082;50.870;0.022;2022-08-01T06:50:16;2.38;;;1.90;;
37805;SDS011;25082;50.870;0.022;2022-08-01T06:52:43;2.95;;;1.98;;
37805;SDS011;25082;50.870;0.022;2022-08-01T06:55:09;1.98;;;1.50;;
37805;SDS011;25082;50.870;0.022;2022-08-01T06:57:35;1.63;;;1.23;;
37805;SDS011;25082;50.870;0.022;2022-08-01T07:00:02;2.60;;;1.63;;
37805;SDS011;25082;50.870;0.022;2022-08-01T07:02:33;1.77;;;1.55;;
37805;SDS011;25082;50.870;0.022;2022-08-01T07:04:59;3.50;;;1.83;;
37805;SDS011;25082;50.870;0.022;2022-08-01T07:07:25;2.92;;;1.63;;
37805;SDS011;25082;50.870;0.022;2022-08-01T07:09:52;3.25;;;1.75;;
37805;SDS011;25082;50.870;0.022;2022-08-01T07:12:18;1.60;;;1.40;;
37805;SDS011;25082;50.870;0.022;2022-08-01T07:14:43;2.17;;;1.38;;
37805;SDS011;25082;50.870;0.022;2022-08-01T07:17:09;1.60;;;1.50;;
37805;SDS011;25082;50.870;0.022;2022-08-01T07:19:35;1.80;;;1.55;;
37805;SDS011;25082;50.870;0.022;2022-08-01T07:22:02;2.65;;;1.55;;
37805;SDS011;25082;50.870;0.022;2022-08-01T07:24:27;2.78;;;1.67;;
37805;SDS011;25082;50.870;0.022;2022-08-01T07:26:54;1.52;;;1.27;;
37805;SDS011;25082;50.870;0.022;2022-08-01T07:29:23;2.97;;;1.75;;
37805;SDS011;25082;50.870;0.022;2022-08-01T07:31:50;2.65;;;1.60;;
37805;SDS011;25082;50.870;0.022;2022-08-01T07:34:17;3.50;;;1.65;;
37805;SDS011;25082;50.870;0.022;2022-08-01T07:36:43;1.55;;;1.10;;
37805;SDS011;25082;50.870;0.022;2022-08-01T07:39:09;2.17;;;1.30;;
37805;SDS011;25082;50.870;0.022;2022-08-01T07:41:35;3.50;;;1.25;;
37805;SDS011;25082;50.870;0.022;2022-08-01T07:44:01;2.53;;;1.58;;
37805;SDS011;25082;50.870;0.022;2022-08-01T07:46:26;2.65;;;1.30;;
37805;SDS011;25082;50.870;0.022;2022-08-01T07:48:52;2.40;;;1.40;;
37805;SDS011;25082;50.870;0.022;2022-08-01T07:51:18;1.48;;;1.27;;
37805;SDS011;25082;50.870;0.022;2022-08-01T07:53:44;3.53;;;1.30;;
37805;SDS011;25082;50.870;0.022;2022-08-01T07:56:09;5.65;;;1.63;;
37805;SDS011;25082;50.870;0.022;2022-08-01T07:58:35;8.32;;;2.50;;
37805;SDS011;25082;50.870;0.022;2022-08-01T08:01:02;14.45;;;2.35;;
37805;SDS011;25082;50.870;0.022;2022-08-01T08:03:27;12.65;;;2.38;;
37805;SDS011;25082;50.870;0.022;2022-08-01T08:05:53;6.53;;;2.58;;
37805;SDS011;25082;50.870;0.022;2022-08-01T08:08:19;3.85;;;1.67;;
37805;SDS011;25082;50.870;0.022;2022-08-01T08:10:45;5.13;;;1.75;;
37805;SDS011;25082;50.870;0.022;2022-08-01T08:13:11;7.53;;;1.50;;
37805;SDS011;25082;50.870;0.022;2022-08-01T08:15:36;6.50;;;2.03;;
37805;SDS011;25082;50.870;0.022;2022-08-01T08:18:03;7.43;;;1.73;;
37805;SDS011;25082;50.870;0.022;2022-08-01T08:20:29;5.75;;;1.70;;
37805;SDS011;25082;50.870;0.022;2022-08-01T08:22:55;6.53;;;2.10;;
37805;SDS011;25082;50.870;0.022;2022-08-01T08:25:23;6.20;;;2.13;;
37805;SDS011;25082;50.870;0.022;2022-08-01T08:27:50;4.88;;;1.52;;
37805;SDS011;25082;50.870;0.022;2022-08-01T08:30:17;3.63;;;1.63;;
37805;SDS011;25082;50.870;0.022;2022-08-01T08:32:42;6.38;;;1.63;;
37805;SDS011;25082;50.870;0.022;2022-08-01T08:35:08;7.28;;;2.35;;
37805;SDS011;25082;50.870;0.022;2022-08-01T08:37:35;7.93;;;2.50;;
37805;SDS011;25082;50.870;0.022;2022-08-01T08:40:02;4.47;;;1.73;;
37805;SDS011;25082;50.870;0.022;2022-08-01T08:42:29;4.00;;;1.33;;
37805;SDS011;25082;50.870;0.022;2022-08-01T08:44:55;3.75;;;1.60;;
37805;SDS011;25082;50.870;0.022;2022-08-01T08:47:21;3.05;;;1.30;;
37805;SDS011;25082;50.870;0.022;2022-08-01T08:49:51;4.05;;;2.08;;
37805;SDS011;25082;50.870;0.022;2022-08-01T08:52:19;7.07;;;1.60;;
37805;SDS011;25082;50.870;0.022;2022-08-01T08:54:46;10.57;;;1.88;;
37805;SDS011;25082;50.870;0.022;2022-08-01T08:57:13;4.88;;;1.50;;
37805;SDS011;25082;50.870;0.022;2022-08-01T08:59:39;8.38;;;1.85;;
37805;SDS011;25082;50.870;0.022;2022-08-01T09:02:07;4.53;;;1.50;;
37805;SDS011;25082;50.870;0.022;2022-08-01T09:04:35;3.22;;;1.35;;
37805;SDS011;25082;50.870;0.022;2022-08-01T09:07:04;3.13;;;1.50;;
37805;SDS011;25082;50.870;0.022;2022-08-01T09:09:30;2.95;;;1.48;;
37805;SDS011;25082;50.870;0.022;2022-08-01T09:11:57;4.47;;;1.48;;
37805;SDS011;25082;50.870;0.022;2022-08-01T09:14:23;4.35;;;1.85;;
37805;SDS011;25082;50.870;0.022;2022-08-01T09:16:59;1.33;;;1.00;;
37805;SDS011;25082;50.870;0.022;2022-08-01T09:19:27;11.15;;;2.15;;
37805;SDS011;25082;50.870;0.022;2022-08-01T09:22:21;7.28;;;2.00;;
37805;SDS011;25082;50.870;0.022;2022-08-01T09:25:04;7.40;;;1.70;;
37805;SDS011;25082;50.870;0.022;2022-08-01T09:27:31;5.55;;;1.92;;
37805;SDS011;25082;50.870;0.022;2022-08-01T09:30:08;6.32;;;1.60;;
37805;SDS011;25082;50.870;0.022;2022-08-01T09:32:58;3.30;;;1.60;;
37805;SDS011;25082;50.870;0.022;2022-08-01T09:35:27;4.78;;;1.92;;
37805;SDS011;25082;50.870;0.022;2022-08-01T09:40:54;3.20;;;1.70;;
37805;SDS011;25082;50.870;0.022;2022-08-01T09:43:25;5.72;;;1.92;;
37805;SDS011;25082;50.870;0.022;2022-08-01T09:45:52;3.60;;;1.60;;
37805;SDS011;25082;50.870;0.022;2022-08-01T09:48:20;6.60;;;1.85;;
37805;SDS011;25082;50.870;0.022;2022-08-01T09:50:47;11.60;;;1.80;;
37805;SDS011;25082;50.870;0.022;2022-08-01T09:53:15;6.10;;;1.67;;
37805;SDS011;25082;50.870;0.022;2022-08-01T09:55:41;3.33;;;1.60;;
37805;SDS011;25082;50.870;0.022;2022-08-01T09:58:08;5.88;;;1.52;;
37805;SDS011;25082;50.870;0.022;2022-08-01T10:00:35;6.75;;;1.73;;
37805;SDS011;25082;50.870;0.022;2022-08-01T10:03:18;3.80;;;1.73;;
37805;SDS011;25082;50.870;0.022;2022-08-01T10:05:51;5.15;;;1.95;;
37805;SDS011;25082;50.870;0.022;2022-08-01T10:08:18;2.83;;;1.67;;
37805;SDS011;25082;50.870;0.022;2022-08-01T10:13:35;3.13;;;1.90;;
37805;SDS011;25082;50.870;0.022;2022-08-01T10:16:01;6.63;;;1.52;;
37805;SDS011;25082;50.870;0.022;2022-08-01T10:18:30;4.88;;;1.75;;
37805;SDS011;25082;50.870;0.022;2022-08-01T10:20:58;11.63;;;2.30;;
37805;SDS011;25082;50.870;0.022;2022-08-01T10:23:30;10.02;;;2.72;;
37805;SDS011;25082;50.870;0.022;2022-08-01T10:26:00;12.40;;;2.33;;
37805;SDS011;25082;50.870;0.022;2022-08-01T10:28:26;10.57;;;2.72;;
37805;SDS011;25082;50.870;0.022;2022-08-01T10:30:56;5.63;;;1.80;;
37805;SDS011;25082;50.870;0.022;2022-08-01T10:33:23;5.93;;;1.92;;
37805;SDS011;25082;50.870;0.022;2022-08-01T10:35:50;7.97;;;1.85;;
37805;SDS011;25082;50.870;0.022;2022-08-01T10:38:16;6.97;;;1.70;;
37805;SDS011;25082;50.870;0.022;2022-08-01T10:40:43;5.88;;;1.90;;
37805;SDS011;25082;50.870;0.022;2022-08-01T10:43:10;3.33;;;1.65;;
37805;SDS011;25082;50.870;0.022;2022-08-01T10:45:36;4.32;;;2.70;;
37805;SDS011;25082;50.870;0.022;2022-08-01T10:48:18;5.10;;;1.90;;
37805;SDS011;25082;50.870;0.022;2022-08-01T10:50:51;4.70;;;2.05;;
37805;SDS011;25082;50.870;0.022;2022-08-01T10:53:20;5.90;;;1.70;;
37805;SDS011;25082;50.870;0.022;2022-08-01T10:58:34;4.07;;;1.83;;
37805;SDS011;25082;50.870;0.022;2022-08-01T11:03:43;4.60;;;2.30;;
37805;SDS011;25082;50.870;0.022;2022-08-01T11:06:23;3.10;;;1.50;;
37805;SDS011;25082;50.870;0.022;2022-08-01T11:08:51;5.50;;;2.33;;
37805;SDS011;25082;50.870;0.022;2022-08-01T11:11:19;4.90;;;1.80;;
37805;SDS011;25082;50.870;0.022;2022-08-01T11:14:02;2.75;;;1.80;;
37805;SDS011;25082;50.870;0.022;2022-08-01T11:16:34;4.30;;;2.20;;
37805;SDS011;25082;50.870;0.022;2022-08-01T11:19:03;9.18;;;3.00;;
37805;SDS011;25082;50.870;0.022;2022-08-01T11:24:53;5.65;;;3.20;;
37805;SDS011;25082;50.870;0.022;2022-08-01T11:27:32;4.72;;;2.65;;
37805;SDS011;25082;50.870;0.022;2022-08-01T11:35:14;6.72;;;2.75;;
37805;SDS011;25082;50.870;0.022;2022-08-01T11:37:40;5.93;;;3.00;;
37805;SDS011;25082;50.870;0.022;2022-08-01T11:40:20;7.88;;;2.92;;
37805;SDS011;25082;50.870;0.022;2022-08-01T11:43:15;6.95;;;3.85;;
37805;SDS011;25082;50.870;0.022;2022-08-01T11:45:55;9.10;;;3.65;;
37805;SDS011;25082;50.870;0.022;2022-08-01T11:48:24;10.90;;;4.00;;
37805;SDS011;25082;50.870;0.022;2022-08-01T11:50:54;8.85;;;3.38;;
37805;SDS011;25082;50.870;0.022;2022-08-01T11:53:21;10.15;;;3.58;;
37805;SDS011;25082;50.870;0.022;2022-08-01T11:55:47;6.00;;;3.55;;
37805;SDS011;25082;50.870;0.022;2022-08-01T11:58:21;6.80;;;3.75;;
37805;SDS011;25082;50.870;0.022;2022-08-01T12:00:52;7.95;;;3.97;;
37805;SDS011;25082;50.870;0.022;2022-08-01T12:03:25;11.38;;;3.47;;
37805;SDS011;25082;50.870;0.022;2022-08-01T12:05:53;8.13;;;3.38;;
37805;SDS011;25082;50.870;0.022;2022-08-01T12:08:24;8.95;;;3.78;;
37805;SDS011;25082;50.870;0.022;2022-08-01T12:10:53;7.90;;;3.85;;
37805;SDS011;25082;50.870;0.022;2022-08-01T12:13:19;5.30;;;3.60;;
37805;SDS011;25082;50.870;0.022;2022-08-01T12:15:46;9.50;;;4.07;;
37805;SDS011;25082;50.870;0.022;2022-08-01T12:18:12;9.30;;;3.35;;
37805;SDS011;25082;50.870;0.022;2022-08-01T12:20:39;6.18;;;3.90;;
37805;SDS011;25082;50.870;0.022;2022-08-01T12:23:09;11.52;;;4.45;;
37805;SDS011;25082;50.870;0.022;2022-08-01T12:25:37;7.45;;;4.20;;
37805;SDS011;25082;50.870;0.022;2022-08-01T12:28:05;6.95;;;4.07;;
37805;SDS011;25082;50.870;0.022;2022-08-01T12:30:32;6.90;;;4.13;;
37805;SDS011;25082;50.870;0.022;2022-08-01T12:33:03;4.82;;;3.88;;
37805;SDS011;25082;50.870;0.022;2022-08-01T12:35:30;8.18;;;4.60;;
37805;SDS011;25082;50.870;0.022;2022-08-01T12:37:57;8.43;;;5.28;;
37805;SDS011;25082;50.870;0.022;2022-08-01T12:40:30;8.38;;;4.63;;
37805;SDS011;25082;50.870;0.022;2022-08-01T12:43:02;8.25;;;4.63;;
37805;SDS011;25082;50.870;0.022;2022-08-01T12:48:08;9.57;;;4.35;;
37805;SDS011;25082;50.870;0.022;2022-08-01T12:50:36;7.95;;;4.10;;
37805;SDS011;25082;50.870;0.022;2022-08-01T12:53:04;9.70;;;4.35;;
37805;SDS011;25082;50.870;0.022;2022-08-01T12:55:30;6.93;;;4.05;;
37805;SDS011;25082;50.870;0.022;2022-08-01T12:58:04;9.07;;;4.70;;
37805;SDS011;25082;50.870;0.022;2022-08-01T13:00:35;10.05;;;4.47;;
37805;SDS011;25082;50.870;0.022;2022-08-01T13:03:06;9.18;;;4.80;;
37805;SDS011;25082;50.870;0.022;2022-08-01T13:05:43;7.55;;;4.78;;
37805;SDS011;25082;50.870;0.022;2022-08-01T13:08:17;10.32;;;5.25;;
37805;SDS011;25082;50.870;0.022;2022-08-01T13:10:45;14.10;;;5.68;;
37805;SDS011;25082;50.870;0.022;2022-08-01T13:13:11;9.90;;;5.53;;
37805;SDS011;25082;50.870;0.022;2022-08-01T13:15:39;7.32;;;4.97;;
37805;SDS011;25082;50.870;0.022;2022-08-01T13:18:28;13.68;;;6.07;;
37805;SDS011;25082;50.870;0.022;2022-08-01T13:26:40;10.30;;;5.68;;
37805;SDS011;25082;50.870;0.022;2022-08-01T13:29:06;13.05;;;5.28;;
37805;SDS011;25082;50.870;0.022;2022-08-01T13:31:33;10.40;;;5.55;;
37805;SDS011;25082;50.870;0.022;2022-08-01T13:34:00;10.57;;;5.60;;
37805;SDS011;25082;50.870;0.022;2022-08-01T13:36:26;10.75;;;5.90;;
37805;SDS011;25082;50.870;0.022;2022-08-01T13:38:53;8.85;;;5.40;;
37805;SDS011;25082;50.870;0.022;2022-08-01T13:41:38;10.18;;;6.10;;
37805;SDS011;25082;50.870;0.022;2022-08-01T13:44:04;11.38;;;5.55;;
37805;SDS011;25082;50.870;0.022;2022-08-01T13:46:31;11.38;;;5.22;;
37805;SDS011;25082;50.870;0.022;2022-08-01T13:48:57;10.52;;;5.65;;
37805;SDS011;25082;50.870;0.022;2022-08-01T13:51:22;11.68;;;6.18;;
37805;SDS011;25082;50.870;0.022;2022-08-01T13:53:48;15.10;;;6.38;;
37805;SDS011;25082;50.870;0.022;2022-08-01T13:56:14;11.65;;;5.13;;
37805;SDS011;25082;50.870;0.022;2022-08-01T13:58:42;11.50;;;5.95;;
37805;SDS011;25082;50.870;0.022;2022-08-01T14:01:08;11.30;;;6.72;;
37805;SDS011;25082;50.870;0.022;2022-08-01T14:03:34;10.85;;;5.78;;
37805;SDS011;25082;50.870;0.022;2022-08-01T14:06:00;11.90;;;7.25;;
37805;SDS011;25082;50.870;0.022;2022-08-01T14:08:27;11.80;;;6.15;;
37805;SDS011;25082;50.870;0.022;2022-08-01T14:10:53;14.68;;;6.85;;
37805;SDS011;25082;50.870;0.022;2022-08-01T14:13:22;15.18;;;6.68;;
37805;SDS011;25082;50.870;0.022;2022-08-01T14:15:48;14.32;;;6.93;;
37805;SDS011;25082;50.870;0.022;2022-08-01T14:18:15;12.93;;;6.97;;
37805;SDS011;25082;50.870;0.022;2022-08-01T14:20:41;14.25;;;7.50;;
37805;SDS011;25082;50.870;0.022;2022-08-01T14:23:07;14.43;;;6.55;;
37805;SDS011;25082;50.870;0.022;2022-08-01T14:25:34;9.50;;;6.80;;
37805;SDS011;25082;50.870;0.022;2022-08-01T14:28:04;8.90;;;6.05;;
37805;SDS011;25082;50.870;0.022;2022-08-01T14:30:31;11.20;;;6.90;;
37805;SDS011;25082;50.870;0.022;2022-08-01T14:32:57;10.65;;;6.15;;
37805;SDS011;25082;50.870;0.022;2022-08-01T14:35:23;12.00;;;5.47;;
37805;SDS011;25082;50.870;0.022;2022-08-01T14:37:50;8.38;;;5.40;;
37805;SDS011;25082;50.870;0.022;2022-08-01T14:40:16;8.88;;;4.80;;
37805;SDS011;25082;50.870;0.022;2022-08-01T14:42:42;7.57;;;4.82;;
37805;SDS011;25082;50.870;0.022;2022-08-01T14:45:09;7.53;;;4.80;;
37805;SDS011;25082;50.870;0.022;2022-08-01T14:47:37;8.32;;;5.53;;
37805;SDS011;25082;50.870;0.022;2022-08-01T14:50:06;7.72;;;5.40;;
37805;SDS011;25082;50.870;0.022;2022-08-01T14:52:33;8.98;;;5.55;;
37805;SDS011;25082;50.870;0.022;2022-08-01T14:55:00;10.70;;;6.10;;
37805;SDS011;25082;50.870;0.022;2022-08-01T14:57:26;9.48;;;6.15;;
37805;SDS011;25082;50.870;0.022;2022-08-01T14:59:52;9.80;;;5.78;;
37805;SDS011;25082;50.870;0.022;2022-08-01T15:02:18;9.48;;;7.40;;
37805;SDS011;25082;50.870;0.022;2022-08-01T15:04:45;9.27;;;6.80;;
37805;SDS011;25082;50.870;0.022;2022-08-01T15:07:11;13.45;;;7.18;;
37805;SDS011;25082;50.870;0.022;2022-08-01T15:09:37;9.63;;;6.88;;
37805;SDS011;25082;50.870;0.022;2022-08-01T15:12:03;8.57;;;6.30;;
37805;SDS011;25082;50.870;0.022;2022-08-01T15:14:29;9.55;;;6.30;;
37805;SDS011;25082;50.870;0.022;2022-08-01T15:17:34;13.75;;;6.60;;
37805;SDS011;25082;50.870;0.022;2022-08-01T15:20:00;10.73;;;6.05;;
37805;SDS011;25082;50.870;0.022;2022-08-01T15:22:30;9.77;;;5.30;;
37805;SDS011;25082;50.870;0.022;2022-08-01T15:24:57;8.25;;;5.05;;
37805;SDS011;25082;50.870;0.022;2022-08-01T15:27:24;10.88;;;5.47;;